Time;durP1;ratioP1;P1;durP2;ratioP2;P2;SDS_P1;SDS_P2;PMS_P1;PMS_P2;Temp;Humidity;BMP_temperature;BMP_pressure;BME280_temperature;BME280_humidity;BME280_pressure;Samples;Min_cycle;Max_cycle;Signal;HPM_P1;HPM_P2
2022/11/16 00:04:16;;;;;;;48.53;25.53;;;10.60;99.90;;;;;;10203422;29;20242;-88
2022/11/16 00:09:21;;;;;;;48.30;23.50;;;8.60;99.90;;;;;;10200525;29;20306;-87
2022/11/16 00:14:27;;;;;;;46.37;24.37;;;9.90;99.90;;;;;;10203027;29;20234;-88
2022/11/16 00:19:29;;;;;;;49.67;27.00;;;11.50;99.90;;;;;;10206037;29;20314;-87
2022/11/16 00:24:33;;;;;;;45.97;21.27;;;12.00;99.90;;;;;;10209863;29;20294;-88
2022/11/16 00:29:35;;;;;;;43.97;21.90;;;9.20;99.90;;;;;;10200610;29;20708;-87
2022/11/16 00:34:38;;;;;;;52.63;25.93;;;10.40;99.90;;;;;;10192068;29;20207;-87
2022/11/16 00:39:41;;;;;;;49.00;21.73;;;11.50;99.90;;;;;;10205676;29;20226;-86
2022/11/16 00:44:47;;;;;;;50.40;23.70;;;10.40;99.90;;;;;;10207071;29;20228;-87
2022/11/16 00:49:49;;;;;;;51.73;26.00;;;9.00;99.90;;;;;;10205332;29;20258;-87
2022/11/16 00:54:52;;;;;;;48.73;21.67;;;11.10;99.90;;;;;;10223403;28;20211;-87
2022/11/16 00:59:54;;;;;;;51.93;26.43;;;10.60;99.90;;;;;;10203657;28;20235;-87
2022/11/16 01:04:58;;;;;;;44.87;22.50;;;10.40;99.90;;;;;;10207077;29;20211;-87
2022/11/16 01:10:05;;;;;;;41.40;21.37;;;8.30;99.90;;;;;;10207192;29;20297;-87
2022/11/16 01:15:09;;;;;;;45.37;20.03;;;9.10;99.90;;;;;;10203371;29;20234;-87
2022/11/16 01:20:24;;;;;;;49.53;22.80;;;8.60;99.90;;;;;;10205666;29;20235;-88
2022/11/16 01:25:27;;;;;;;52.77;22.53;;;9.60;99.90;;;;;;10199120;29;20299;-88
2022/11/16 01:30:29;;;;;;;44.50;22.53;;;8.10;99.90;;;;;;10215642;29;20262;-87
2022/11/16 01:35:36;;;;;;;55.03;22.27;;;7.70;99.90;;;;;;10213882;29;20266;-87
2022/11/16 01:40:39;;;;;;;44.97;21.43;;;9.20;99.90;;;;;;10213905;29;20207;-87
2022/11/16 01:45:43;;;;;;;44.90;23.27;;;8.60;99.90;;;;;;10214727;29;20215;-87
2022/11/16 01:50:49;;;;;;;51.13;21.50;;;9.70;99.90;;;;;;10213095;29;20708;-88
2022/11/16 01:55:52;;;;;;;40.67;19.53;;;10.30;99.90;;;;;;10229680;29;20262;-87
2022/11/16 02:01:10;;;;;;;45.63;22.83;;;8.30;99.90;;;;;;10213572;29;20212;-87
2022/11/16 02:06:25;;;;;;;42.03;20.00;;;8.90;99.90;;;;;;10213277;29;20203;-88
2022/11/16 02:11:48;;;;;;;46.17;24.00;;;9.80;99.90;;;;;;10213197;29;20709;-88
2022/11/16 02:17:19;;;;;;;37.07;22.13;;;10.90;99.90;;;;;;10206259;29;20244;-88
2022/11/16 02:22:47;;;;;;;39.83;18.50;;;10.40;99.90;;;;;;10208841;29;20243;-88
2022/11/16 02:28:17;;;;;;;36.53;20.20;;;9.20;99.90;;;;;;10212400;29;20235;-88
2022/11/16 02:33:23;;;;;;;41.13;20.40;;;11.70;99.90;;;;;;10213194;29;20239;-87
2022/11/16 02:38:31;;;;;;;36.80;21.77;;;11.10;99.90;;;;;;10213188;29;20243;-87
2022/11/16 02:43:40;;;;;;;37.17;20.30;;;10.60;99.90;;;;;;10227145;29;20219;-87
2022/11/16 02:48:47;;;;;;;45.73;24.57;;;11.20;99.90;;;;;;10211223;29;20337;-87
2022/11/16 02:53:56;;;;;;;39.97;21.50;;;9.70;99.90;;;;;;10211863;29;20262;-88
2022/11/16 02:59:00;;;;;;;39.13;21.50;;;11.00;99.90;;;;;;10211126;29;20215;-88
2022/11/16 03:04:17;;;;;;;41.37;22.70;;;10.80;99.90;;;;;;10210230;29;20274;-88
2022/11/16 03:09:27;;;;;;;40.93;21.97;;;11.70;99.90;;;;;;10210589;29;20642;-88
2022/11/16 03:14:44;;;;;;;36.53;21.53;;;11.80;99.90;;;;;;10182076;29;20657;-88
2022/11/16 03:20:26;;;;;;;34.00;20.23;;;11.20;99.90;;;;;;10209910;29;20224;-88
2022/11/16 03:25:35;;;;;;;36.83;22.00;;;10.40;99.90;;;;;;10150813;29;20291;-88
2022/11/16 03:30:48;;;;;;;33.07;16.57;;;11.10;99.90;;;;;;10165560;29;20296;-88
2022/11/16 03:36:00;;;;;;;41.00;22.20;;;10.40;99.90;;;;;;10166371;29;20354;-87
2022/11/16 03:41:08;;;;;;;35.17;20.23;;;11.30;99.90;;;;;;10149073;29;20286;-88
2022/11/16 03:46:12;;;;;;;27.87;16.63;;;11.30;99.90;;;;;;10165427;29;20243;-87
2022/11/16 03:51:15;;;;;;;33.53;19.97;;;10.20;99.90;;;;;;10165569;29;20267;-88
2022/11/16 03:56:17;;;;;;;30.73;18.47;;;11.80;99.90;;;;;;10155386;29;20246;-88
2022/11/16 04:01:21;;;;;;;25.87;15.30;;;9.10;99.90;;;;;;10192013;29;20215;-88
2022/11/16 04:28:24;;;;;;;26.73;15.50;;;11.30;99.90;;;;;;10193978;29;20214;-87
2022/11/16 04:38:56;;;;;;;36.13;19.87;;;7.70;99.90;;;;;;10200375;29;20297;-88
2022/11/16 04:43:59;;;;;;;30.33;18.13;;;;;;;;;;10175045;29;20238;-88
2022/11/16 04:49:02;;;;;;;34.67;19.60;;;12.10;99.90;;;;;;10204823;29;20258;-88
2022/11/16 04:54:05;;;;;;;34.90;20.47;;;8.70;99.90;;;;;;10206037;29;20733;-87
2022/11/16 04:59:07;;;;;;;38.13;21.57;;;11.40;99.90;;;;;;10221951;29;20270;-87
2022/11/16 05:04:10;;;;;;;38.67;17.87;;;11.80;99.90;;;;;;10206235;29;20310;-88
2022/11/16 05:09:13;;;;;;;38.30;22.00;;;9.90;99.90;;;;;;10217182;28;20259;-88
2022/11/16 05:14:16;;;;;;;32.10;18.10;;;11.30;99.90;;;;;;10166830;29;20294;-87
2022/11/16 05:24:40;;;;;;;33.67;20.00;;;11.80;99.90;;;;;;10222082;29;20278;-87
2022/11/16 05:29:44;;;;;;;34.23;20.70;;;11.70;99.90;;;;;;10204499;29;20321;-88
2022/11/16 05:34:50;;;;;;;34.03;21.07;;;12.70;99.90;;;;;;10203675;29;20299;-88
2022/11/16 05:39:55;;;;;;;31.63;18.70;;;12.20;99.90;;;;;;10219777;28;20304;-88
2022/11/16 05:45:08;;;;;;;27.33;16.63;;;12.70;99.90;;;;;;10202900;29;20285;-88
2022/11/16 05:50:10;;;;;;;28.37;17.90;;;11.60;99.90;;;;;;10204512;29;20316;-88
2022/11/16 05:55:15;;;;;;;28.47;17.17;;;11.50;99.90;;;;;;10201197;29;20222;-88
2022/11/16 06:00:18;;;;;;;27.57;15.93;;;10.70;99.90;;;;;;10203183;29;20247;-88
2022/11/16 06:05:25;;;;;;;28.77;17.70;;;10.40;99.90;;;;;;10193956;29;20251;-88
2022/11/16 06:10:29;;;;;;;24.63;15.37;;;10.90;99.90;;;;;;10208027;29;20725;-88
2022/11/16 06:15:37;;;;;;;29.83;17.70;;;10.40;99.90;;;;;;10208349;29;20231;-88
2022/11/16 06:20:40;;;;;;;28.87;18.23;;;10.70;99.90;;;;;;10192925;29;20238;-88
2022/11/16 06:25:45;;;;;;;32.03;18.53;;;11.80;99.90;;;;;;10220624;29;20247;-87
2022/11/16 06:30:48;;;;;;;36.93;19.60;;;11.60;99.90;;;;;;10210294;29;21007;-88
2022/11/16 06:35:50;;;;;;;24.73;15.37;;;11.50;99.90;;;;;;10208268;29;20240;-87
2022/11/16 06:40:57;;;;;;;33.20;18.70;;;12.20;99.90;;;;;;10208882;29;20246;-88
2022/11/16 06:46:03;;;;;;;33.17;19.30;;;11.70;99.90;;;;;;10201885;29;20253;-87
2022/11/16 06:51:06;;;;;;;29.00;17.40;;;10.70;99.90;;;;;;10207843;29;20271;-93
2022/11/16 06:56:12;;;;;;;26.20;15.43;;;12.90;99.90;;;;;;10209758;28;20238;-94
2022/11/16 07:01:20;;;;;;;26.57;15.37;;;11.40;99.90;;;;;;10210280;29;20236;-94
2022/11/16 07:06:24;;;;;;;24.67;14.93;;;11.70;99.90;;;;;;10221445;28;20207;-94
2022/11/16 07:11:26;;;;;;;24.13;14.57;;;12.70;99.90;;;;;;10203006;29;20252;-89
2022/11/16 07:16:29;;;;;;;22.80;13.33;;;11.40;99.90;;;;;;10208299;29;20241;-89
2022/11/16 07:21:37;;;;;;;26.27;14.53;;;10.50;99.90;;;;;;10217581;29;20247;-88
2022/11/16 07:26:48;;;;;;;20.70;13.03;;;11.10;99.90;;;;;;10234343;29;20627;-88
2022/11/16 07:31:55;;;;;;;29.53;14.00;;;12.40;99.90;;;;;;10227647;29;20262;-87
2022/11/16 07:37:18;;;;;;;21.73;14.03;;;12.10;99.90;;;;;;10188731;29;20230;-88
2022/11/16 07:42:20;;;;;;;27.50;16.23;;;12.20;99.90;;;;;;10208981;29;20283;-88
2022/11/16 07:47:52;;;;;;;24.33;14.53;;;12.60;99.90;;;;;;10195208;29;20696;-88
2022/11/16 07:53:17;;;;;;;28.10;16.37;;;12.80;99.90;;;;;;10209635;29;20318;-88
2022/11/16 07:58:20;;;;;;;25.93;15.30;;;12.70;99.90;;;;;;10198843;29;20233;-88
2022/11/16 08:03:23;;;;;;;23.27;14.87;;;9.90;99.90;;;;;;10203037;29;20243;-88
2022/11/16 08:08:28;;;;;;;24.90;15.23;;;11.90;99.90;;;;;;10208190;29;20210;-88
2022/11/16 08:13:33;;;;;;;24.90;14.90;;;12.40;99.90;;;;;;10206116;29;20310;-88
2022/11/16 08:18:39;;;;;;;27.63;16.37;;;12.90;99.90;;;;;;10207210;29;20611;-88
2022/11/16 08:23:43;;;;;;;20.43;12.40;;;13.50;99.90;;;;;;10207724;29;20209;-88
2022/11/16 08:28:49;;;;;;;17.13;10.97;;;12.40;99.90;;;;;;10205452;29;20276;-88
2022/11/16 08:33:53;;;;;;;16.70;11.23;;;10.90;99.90;;;;;;10207525;29;20709;-88
2022/11/16 08:38:56;;;;;;;12.33;8.47;;;8.90;99.90;;;;;;10208328;29;20203;-88
2022/11/16 08:44:00;;;;;;;10.90;7.10;;;12.00;99.90;;;;;;10205431;29;20262;-88
2022/11/16 08:49:04;;;;;;;26.27;13.80;;;11.40;99.90;;;;;;10206294;29;20207;-88
2022/11/16 08:54:06;;;;;;;10.60;6.57;;;11.50;99.90;;;;;;10205439;29;20266;-88
2022/11/16 08:59:12;;;;;;;21.30;12.37;;;12.00;99.90;;;;;;10206068;29;20195;-88
2022/11/16 09:04:21;;;;;;;15.63;10.10;;;12.90;99.90;;;;;;10205051;29;20208;-88
2022/11/16 09:09:24;;;;;;;10.70;7.30;;;11.90;99.90;;;;;;10206012;29;20750;-88
2022/11/16 09:14:27;;;;;;;20.90;12.47;;;13.10;99.90;;;;;;10205874;29;20219;-88
2022/11/16 09:19:30;;;;;;;14.93;7.67;;;14.00;99.90;;;;;;10204784;29;20672;-88
2022/11/16 09:24:33;;;;;;;15.83;9.43;;;11.00;99.90;;;;;;10207439;29;20235;-89
2022/11/16 09:29:35;;;;;;;21.63;12.77;;;11.50;99.90;;;;;;10222044;28;20673;-88
2022/11/16 09:34:38;;;;;;;10.17;7.27;;;13.00;99.90;;;;;;10203098;29;20285;-89
2022/11/16 09:39:40;;;;;;;17.80;10.10;;;13.10;98.80;;;;;;10205739;29;20226;-88
2022/11/16 09:45:05;;;;;;;18.70;12.30;;;12.40;99.90;;;;;;10213575;29;20308;-88
2022/11/16 09:50:30;;;;;;;20.70;11.77;;;12.50;99.90;;;;;;10209096;29;20334;-89
2022/11/16 09:55:39;;;;;;;26.63;15.13;;;10.40;99.90;;;;;;10212918;29;20235;-89
2022/11/16 10:00:47;;;;;;;23.53;13.87;;;10.50;99.90;;;;;;10213009;29;20226;-88
2022/11/16 10:05:58;;;;;;;18.00;12.17;;;10.80;99.90;;;;;;10210388;29;20243;-89
2022/11/16 10:11:10;;;;;;;24.17;13.97;;;10.70;99.90;;;;;;10213046;29;20297;-88
2022/11/16 10:16:30;;;;;;;24.37;15.30;;;11.50;99.90;;;;;;10195683;29;20741;-88
2022/11/16 10:22:21;;;;;;;28.17;19.03;;;10.50;99.90;;;;;;10210278;29;20230;-88
2022/11/16 10:27:38;;;;;;;23.67;13.60;;;10.70;99.90;;;;;;10168629;29;20239;-88
2022/11/16 10:32:56;;;;;;;28.83;18.60;;;11.20;99.90;;;;;;10168451;29;20316;-88
2022/11/16 10:38:01;;;;;;;22.57;15.00;;;11.20;99.90;;;;;;10167474;29;20275;-88
2022/11/16 10:43:25;;;;;;;22.30;13.83;;;11.40;99.90;;;;;;10167904;29;20413;-88
2022/11/16 10:48:40;;;;;;;20.73;13.63;;;12.80;99.90;;;;;;10166516;29;20759;-88
2022/11/16 10:53:43;;;;;;;26.40;15.27;;;13.40;99.90;;;;;;10166067;29;20672;-88
2022/11/16 10:58:57;;;;;;;16.73;10.97;;;11.30;99.90;;;;;;10215102;29;20277;-88
2022/11/16 11:04:21;;;;;;;18.20;13.23;;;13.60;99.90;;;;;;10210572;29;20696;-88
2022/11/16 11:09:35;;;;;;;21.67;13.33;;;14.40;99.90;;;;;;10209429;29;20214;-88
2022/11/16 11:15:06;;;;;;;17.03;10.27;;;13.80;96.30;;;;;;10218899;29;20214;-88
2022/11/16 11:20:15;;;;;;;8.37;6.33;;;13.50;99.10;;;;;;10209954;29;20257;-88
2022/11/16 11:25:37;;;;;;;14.57;8.03;;;11.50;99.90;;;;;;10193674;29;20288;-89
2022/11/16 11:30:39;;;;;;;12.60;9.50;;;11.10;99.90;;;;;;10209230;29;20270;-94
2022/11/16 11:35:42;;;;;;;10.03;7.43;;;12.50;99.90;;;;;;10213913;29;20207;-92
2022/11/16 11:40:57;;;;;;;16.13;9.87;;;11.80;99.90;;;;;;10227368;29;20307;-93
2022/11/16 11:46:14;;;;;;;15.03;9.77;;;11.90;99.90;;;;;;10213018;29;20272;-93
2022/11/16 11:51:35;;;;;;;16.97;11.17;;;12.70;99.90;;;;;;10226232;29;20261;-93
2022/11/16 11:56:38;;;;;;;13.53;9.40;;;12.30;99.90;;;;;;10211632;29;20214;-92
2022/11/16 12:02:21;;;;;;;5.50;4.93;;;12.90;99.90;;;;;;10209694;29;20262;-93
2022/11/16 12:07:45;;;;;;;15.00;10.10;;;12.30;99.90;;;;;;10211150;29;20890;-92
2022/11/16 12:13:12;;;;;;;12.03;8.87;;;10.80;99.90;;;;;;10210922;29;20238;-93
2022/11/16 12:18:35;;;;;;;10.80;8.03;;;13.30;99.90;;;;;;10207838;29;20237;-91
2022/11/16 12:24:08;;;;;;;13.50;9.43;;;13.40;99.90;;;;;;10221442;29;20234;-92
2022/11/16 12:29:17;;;;;;;7.63;6.57;;;14.50;99.90;;;;;;10207741;29;20746;-92
2022/11/16 12:34:34;;;;;;;14.40;9.33;;;13.20;99.00;;;;;;10207327;29;20253;-92
2022/11/16 12:39:44;;;;;;;12.30;8.93;;;11.40;99.90;;;;;;10187661;29;20277;-91
2022/11/16 12:45:16;;;;;;;11.67;8.63;;;12.60;99.90;;;;;;10223323;29;20229;-92
2022/11/16 12:50:39;;;;;;;13.17;9.70;;;13.30;99.90;;;;;;10146914;29;20239;-92
2022/11/16 12:56:20;;;;;;;12.70;8.20;;;11.70;99.90;;;;;;10167438;29;20679;-93
2022/11/16 13:01:35;;;;;;;13.33;9.13;;;11.40;99.90;;;;;;10072659;29;20270;-92
2022/11/16 13:06:44;;;;;;;7.93;6.37;;;10.40;99.90;;;;;;10046270;29;20428;-92
2022/11/16 13:11:53;;;;;;;13.07;9.67;;;12.10;99.90;;;;;;10032331;29;20331;-92
2022/11/16 13:16:59;;;;;;;14.17;9.33;;;13.00;99.90;;;;;;10052726;29;20249;-92
2022/11/16 13:22:09;;;;;;;9.30;6.53;;;12.30;99.90;;;;;;10039326;29;20301;-92
2022/11/16 13:27:18;;;;;;;13.70;10.40;;;11.40;99.90;;;;;;10054148;29;20249;-91
2022/11/16 13:32:54;;;;;;;8.37;7.07;;;12.10;99.90;;;;;;10076166;29;20313;-92
2022/11/16 13:37:57;;;;;;;15.10;10.20;;;11.50;99.90;;;;;;10207310;29;20267;-92
2022/11/16 13:43:08;;;;;;;7.53;5.90;;;12.20;99.90;;;;;;10209984;29;20693;-90
2022/11/16 13:48:19;;;;;;;6.07;4.40;;;11.60;99.90;;;;;;10212770;29;20728;-91
2022/11/16 13:53:28;;;;;;;7.27;4.67;;;12.70;99.90;;;;;;10213133;29;20284;-91
2022/11/16 13:58:55;;;;;;;7.40;5.90;;;;;;;;;;10219309;29;20685;-91
2022/11/16 14:04:37;;;;;;;10.13;6.47;;;6.70;99.90;;;;;;10210446;29;20988;-91
2022/11/16 14:09:45;;;;;;;13.53;10.20;;;7.70;99.90;;;;;;10208868;29;20633;-91
2022/11/16 14:15:21;;;;;;;21.13;13.90;;;7.50;99.90;;;;;;10186914;29;20301;-92
2022/11/16 14:20:36;;;;;;;7.40;6.23;;;6.40;99.90;;;;;;10206560;29;20231;-91
2022/11/16 14:26:26;;;;;;;8.30;5.67;;;9.40;99.90;;;;;;10190531;29;20203;-96
2022/11/16 14:31:45;;;;;;;6.73;5.43;;;12.10;99.90;;;;;;10173466;29;20239;-96
2022/11/16 14:36:49;;;;;;;5.33;4.67;;;10.80;99.90;;;;;;10143284;29;20213;-96
2022/11/16 14:41:52;;;;;;;9.20;6.27;;;10.90;99.90;;;;;;10178012;29;20218;-96
2022/11/16 14:46:56;;;;;;;5.93;5.30;;;11.60;99.90;;;;;;10184154;29;20227;-95
2022/11/16 14:52:00;;;;;;;7.70;5.50;;;10.30;99.90;;;;;;10161989;29;20309;-95
2022/11/16 14:57:12;;;;;;;9.97;7.23;;;9.10;99.90;;;;;;10159664;29;20253;-96
2022/11/16 15:02:21;;;;;;;8.27;6.27;;;10.80;99.90;;;;;;10159384;29;20224;-96
2022/11/16 15:07:27;;;;;;;8.43;6.60;;;11.80;99.90;;;;;;10204748;29;20224;-96
2022/11/16 15:12:42;;;;;;;11.60;9.80;;;11.00;99.90;;;;;;10200434;29;20702;-96
2022/11/16 15:17:59;;;;;;;8.03;7.23;;;11.50;99.90;;;;;;10203350;29;20209;-96
2022/11/16 15:23:04;;;;;;;8.67;7.00;;;11.10;99.90;;;;;;10208633;29;20214;-96
2022/11/16 15:28:20;;;;;;;9.27;7.00;;;9.40;99.90;;;;;;10205411;29;20266;-96
2022/11/16 15:33:29;;;;;;;10.63;7.73;;;8.10;99.90;;;;;;10216952;29;20709;-96
2022/11/16 15:38:32;;;;;;;127.33;19.40;;;8.20;99.90;;;;;;10208767;29;20207;-93
2022/11/16 15:43:40;;;;;;;55.87;11.07;;;10.50;99.90;;;;;;10207920;29;20266;-94
2022/11/16 15:49:07;;;;;;;46.37;9.20;;;10.80;99.90;;;;;;10213332;29;20216;-93
2022/11/16 15:54:28;;;;;;;43.83;9.53;;;12.70;99.90;;;;;;10211980;29;20344;-95
2022/11/16 15:59:33;;;;;;;19.27;8.53;;;12.70;99.90;;;;;;10211246;29;20667;-95
2022/11/16 16:04:40;;;;;;;9.20;6.53;;;12.10;99.90;;;;;;10212165;29;20274;-96
2022/11/16 16:09:44;;;;;;;12.73;7.67;;;9.10;99.90;;;;;;10184826;29;20218;-94
2022/11/16 16:14:48;;;;;;;19.97;9.10;;;10.10;99.90;;;;;;10193597;29;20253;-94
2022/11/16 16:19:59;;;;;;;19.70;9.83;;;9.00;99.90;;;;;;10209650;29;20199;-94
2022/11/16 16:25:05;;;;;;;13.97;8.97;;;10.60;99.90;;;;;;10211007;29;20256;-93
2022/11/16 16:30:13;;;;;;;23.90;8.50;;;11.90;98.50;;;;;;10205178;29;20279;-94
2022/11/16 16:35:18;;;;;;;16.37;9.73;;;12.90;99.90;;;;;;10189049;29;20313;-94
2022/11/16 16:40:21;;;;;;;11.90;7.27;;;11.30;99.90;;;;;;10207927;29;20234;-94
2022/11/16 16:45:35;;;;;;;9.93;7.77;;;11.20;99.90;;;;;;10209298;29;20203;-94
2022/11/16 16:50:38;;;;;;;13.27;8.50;;;11.90;99.90;;;;;;10206455;29;20230;-93
2022/11/16 16:55:42;;;;;;;17.60;10.20;;;9.20;99.90;;;;;;10218461;29;20658;-92
2022/11/16 17:00:45;;;;;;;12.80;8.10;;;7.50;99.90;;;;;;10211715;29;20293;-94
2022/11/16 17:05:49;;;;;;;14.37;7.67;;;10.60;99.90;;;;;;10205804;29;20238;-94
2022/11/16 17:10:52;;;;;;;11.80;8.50;;;13.50;99.90;;;;;;10221305;29;20233;-93
2022/11/16 17:15:55;;;;;;;14.03;8.93;;;12.10;99.90;;;;;;10206134;29;20249;-94
2022/11/16 17:21:05;;;;;;;8.70;7.37;;;11.60;99.90;;;;;;10206592;29;20361;-94
2022/11/16 17:26:08;;;;;;;13.33;9.20;;;10.50;99.90;;;;;;10208202;29;20211;-94
2022/11/16 17:31:12;;;;;;;11.70;7.43;;;12.90;99.90;;;;;;10207703;29;20274;-94
2022/11/16 17:36:15;;;;;;;10.87;8.20;;;12.00;96.00;;;;;;10206653;29;20244;-94
2022/11/16 17:41:20;;;;;;;11.87;7.37;;;9.70;99.90;;;;;;10214528;29;20281;-94
2022/11/16 17:46:24;;;;;;;11.27;8.77;;;11.00;99.90;;;;;;10206711;29;20238;-92
2022/11/16 17:51:30;;;;;;;13.37;7.90;;;10.60;99.90;;;;;;10205979;29;20231;-93
2022/11/16 17:56:33;;;;;;;11.10;7.37;;;10.60;99.90;;;;;;10206983;29;20211;-93
2022/11/16 18:01:36;;;;;;;8.43;6.87;;;11.80;99.90;;;;;;10200577;29;20244;-92
2022/11/16 18:06:39;;;;;;;11.30;8.33;;;12.50;99.90;;;;;;10197457;29;20215;-94
2022/11/16 18:11:41;;;;;;;9.57;7.03;;;14.50;99.90;;;;;;10208158;29;20286;-93
2022/11/16 18:16:46;;;;;;;14.57;9.77;;;13.20;99.90;;;;;;10228239;29;20259;-96
2022/11/16 18:21:50;;;;;;;11.00;8.17;;;13.90;99.90;;;;;;10205665;29;20204;-94
2022/11/16 18:26:53;;;;;;;9.87;8.50;;;12.50;99.90;;;;;;10208254;29;20301;-93
2022/11/16 18:31:56;;;;;;;11.73;8.83;;;14.10;99.90;;;;;;10207365;29;20270;-93
2022/11/16 18:36:59;;;;;;;9.97;7.33;;;14.70;99.90;;;;;;10211086;29;20227;-93
2022/11/16 18:42:03;;;;;;;10.77;8.67;;;13.00;99.90;;;;;;10209923;28;20319;-92
2022/11/16 18:47:05;;;;;;;11.17;8.73;;;12.30;99.90;;;;;;10210092;29;20238;-93
2022/11/16 18:52:08;;;;;;;10.27;8.67;;;11.70;99.90;;;;;;10211625;29;20731;-93
2022/11/16 18:57:12;;;;;;;9.40;6.93;;;14.10;99.90;;;;;;10210238;29;20203;-93
2022/11/16 19:02:15;;;;;;;8.13;7.33;;;13.90;97.60;;;;;;9866500;29;10000238;-93
2022/11/16 19:07:18;;;;;;;13.57;8.67;;;12.10;88.00;;;;;;10211526;29;20275;-94
2022/11/16 19:12:21;;;;;;;10.80;8.60;;;11.20;99.90;;;;;;10210145;29;20248;-93
2022/11/16 19:17:25;;;;;;;11.23;8.47;;;12.90;99.90;;;;;;10211761;29;20637;-94
2022/11/16 19:22:32;;;;;;;8.73;7.57;;;13.10;96.60;;;;;;10213187;29;20739;-95
2022/11/16 19:27:35;;;;;;;9.40;7.63;;;12.80;99.90;;;;;;10210652;29;20219;-93
2022/11/16 19:32:38;;;;;;;8.97;7.77;;;12.40;99.90;;;;;;10196182;29;20709;-93
2022/11/16 19:37:42;;;;;;;12.90;8.83;;;11.90;99.90;;;;;;10211577;29;20261;-93
2022/11/16 19:42:45;;;;;;;10.80;7.03;;;11.20;99.90;;;;;;10212136;29;20211;-93
2022/11/16 19:47:48;;;;;;;10.77;8.17;;;12.30;99.90;;;;;;10185878;29;20622;-95
2022/11/16 19:52:51;;;;;;;7.13;6.43;;;12.20;95.50;;;;;;10197982;29;20301;-93
2022/11/16 19:57:54;;;;;;;9.70;7.83;;;11.80;93.20;;;;;;10242397;28;20210;-94
2022/11/16 20:02:57;;;;;;;10.07;7.20;;;10.90;99.90;;;;;;10219682;28;20240;-95
2022/11/16 20:08:00;;;;;;;7.90;6.37;;;11.90;99.90;;;;;;10192744;29;20235;-93
2022/11/16 20:13:03;;;;;;;9.70;7.60;;;13.90;79.80;;;;;;10205542;29;20883;-91
2022/11/16 20:18:08;;;;;;;9.83;7.37;;;5.90;99.90;;;;;;10201286;29;20210;-92
2022/11/16 20:23:14;;;;;;;13.17;7.97;;;;;;;;;;10232807;28;20238;-91
2022/11/16 20:28:17;;;;;;;15.63;7.57;;;4.40;99.90;;;;;;10200422;29;20637;-91
2022/11/16 20:33:20;;;;;;;13.87;9.10;;;6.00;99.90;;;;;;10203522;29;20301;-93
2022/11/16 20:38:22;;;;;;;12.03;9.17;;;4.20;99.90;;;;;;10207205;29;20207;-93
2022/11/16 20:43:25;;;;;;;12.70;8.47;;;4.20;99.90;;;;;;10208663;29;20242;-94
2022/11/16 20:48:27;;;;;;;11.97;8.40;;;4.20;99.90;;;;;;10206031;29;20266;-94
2022/11/16 20:53:30;;;;;;;15.40;9.43;;;4.50;99.90;;;;;;10208271;29;20613;-94
2022/11/16 20:58:33;;;;;;;13.47;9.10;;;4.20;99.90;;;;;;10210749;29;20282;-92
2022/11/16 21:03:36;;;;;;;13.77;9.33;;;4.70;99.90;;;;;;10211447;29;20207;-93
2022/11/16 21:08:40;;;;;;;10.63;8.10;;;5.20;99.90;;;;;;10207956;29;20573;-93
2022/11/16 21:19:07;;;;;;;9.53;7.27;;;5.50;99.90;;;;;;10211267;29;20196;-92
2022/11/16 21:24:10;;;;;;;9.67;7.43;;;5.70;99.90;;;;;;10210738;28;20211;-93
2022/11/16 21:29:12;;;;;;;8.73;6.57;;;5.70;99.90;;;;;;10210273;29;20242;-93
2022/11/16 21:34:16;;;;;;;12.20;7.83;;;6.60;99.90;;;;;;10211324;29;20285;-92
2022/11/16 21:39:18;;;;;;;12.17;7.30;;;4.90;99.90;;;;;;10216860;29;20312;-93
2022/11/16 21:44:21;;;;;;;13.47;8.23;;;5.10;99.90;;;;;;10219064;29;20207;-92
2022/11/16 21:49:23;;;;;;;12.63;7.67;;;4.80;99.90;;;;;;10211344;29;20593;-92
2022/11/16 21:55:08;;;;;;;11.37;7.70;;;4.70;99.90;;;;;;10202971;29;20645;-91
2022/11/16 21:59:51;;;;;;;10.43;7.27;;;4.80;99.90;;;;;;10216646;29;20581;-91
2022/11/16 22:10:15;;;;;;;9.87;7.97;;;5.70;99.90;;;;;;10218236;29;20262;-92
2022/11/16 22:15:18;;;;;;;12.47;7.87;;;4.80;99.90;;;;;;10218832;29;21208;-91
2022/11/16 22:20:21;;;;;;;10.40;7.40;;;6.60;99.90;;;;;;10220531;29;20199;-91
2022/11/16 22:25:23;;;;;;;11.30;8.07;;;4.90;99.90;;;;;;10219914;29;20273;-91
2022/11/16 22:30:26;;;;;;;9.17;7.93;;;6.20;99.90;;;;;;10218783;29;20239;-91
2022/11/16 22:35:28;;;;;;;12.20;8.77;;;5.40;99.90;;;;;;10197957;29;20637;-91
2022/11/16 22:40:31;;;;;;;17.60;8.83;;;5.70;99.90;;;;;;10223042;29;20569;-91
2022/11/16 22:45:34;;;;;;;11.73;8.43;;;4.80;99.90;;;;;;10221975;29;20206;-91
2022/11/16 22:50:36;;;;;;;17.53;9.10;;;6.30;99.90;;;;;;10220425;29;20219;-91
2022/11/16 22:55:39;;;;;;;11.67;8.70;;;5.20;99.90;;;;;;10223406;29;20282;-91
2022/11/16 23:00:41;;;;;;;14.40;8.63;;;4.20;99.90;;;;;;10222174;29;20551;-91
2022/11/16 23:05:44;;;;;;;11.50;8.70;;;5.40;99.90;;;;;;10221845;29;20600;-91
2022/11/16 23:16:07;;;;;;;9.90;7.57;;;5.50;99.90;;;;;;10264836;29;20263;-90
2022/11/16 23:31:56;;;;;;;15.77;8.57;;;5.10;99.90;;;;;;10222176;28;20335;-91
2022/11/16 23:37:06;;;;;;;12.27;8.20;;;4.10;99.90;;;;;;10222526;29;20252;-90
2022/11/16 23:47:30;;;;;;;9.70;7.70;;;5.80;99.90;;;;;;10220119;28;20590;-91
2022/11/16 23:52:33;;;;;;;9.10;7.17;;;8.50;99.90;;;;;;10221697;29;20188;-92
2022/11/16 23:57:35;;;;;;;12.33;8.30;;;9.80;99.90;;;;;;10221536;29;20207;-92
